createdAt,value
2019-03-28T00:01:10.736Z,8.60
2019-03-28T00:03:40.962Z,8.60
2019-03-28T00:06:12.281Z,8.60
2019-03-28T00:08:43.966Z,8.60
2019-03-28T00:11:13.952Z,8.60
2019-03-28T00:13:44.160Z,8.70
2019-03-28T00:16:15.150Z,8.60
2019-03-28T00:18:45.221Z,8.60
2019-03-28T00:21:15.158Z,8.60
2019-03-28T00:24:01.782Z,8.60
2019-03-28T00:26:32.828Z,8.60
2019-03-28T00:29:02.887Z,8.60
2019-03-28T00:31:33.029Z,8.60
2019-03-28T00:34:03.198Z,8.60
2019-03-28T00:36:34.360Z,8.50
2019-03-28T00:39:05.521Z,8.50
2019-03-28T00:41:35.699Z,8.50
2019-03-28T00:44:05.900Z,8.50
2019-03-28T00:46:36.951Z,8.50
2019-03-28T00:49:08.744Z,8.40
2019-03-28T00:51:38.890Z,8.30
2019-03-28T00:54:08.975Z,8.30
2019-03-28T00:56:46.884Z,8.30
2019-03-28T00:59:11.878Z,8.20
2019-03-28T01:01:42.026Z,8.20
2019-03-28T01:04:12.287Z,8.10
2019-03-28T01:06:43.441Z,8.20
2019-03-28T01:09:13.650Z,8.10
2019-03-28T01:11:43.621Z,8.10
2019-03-28T01:14:13.744Z,8.10
2019-03-28T01:16:44.854Z,8.20
2019-03-28T01:19:14.903Z,8.20
2019-03-28T01:21:44.852Z,8.20
2019-03-28T01:24:15.003Z,8.30
2019-03-28T01:26:56.748Z,8.20
2019-03-28T01:29:17.814Z,8.20
2019-03-28T01:31:47.766Z,8.10
2019-03-28T01:34:17.846Z,8.10
2019-03-28T01:36:48.955Z,8.10
2019-03-28T01:39:19.107Z,8.10
2019-03-28T01:41:49.141Z,8.10
2019-03-28T01:44:19.233Z,8.00
2019-03-28T01:46:50.474Z,8.00
2019-03-28T01:49:21.618Z,8.00
2019-03-28T01:51:51.653Z,8.00
2019-03-28T01:54:21.823Z,7.90
2019-03-28T01:56:52.992Z,7.80
2019-03-28T01:59:23.186Z,7.80
2019-03-28T02:01:53.243Z,7.80
2019-03-28T02:04:23.318Z,7.70
2019-03-28T02:06:54.582Z,7.70
2019-03-28T02:09:24.670Z,7.70
2019-03-28T02:11:54.727Z,7.70
2019-03-28T02:14:24.859Z,7.60
2019-03-28T02:16:55.995Z,7.60
2019-03-28T02:19:26.036Z,7.60
2019-03-28T02:21:55.983Z,7.70
2019-03-28T02:24:26.307Z,7.70
2019-03-28T02:26:57.708Z,7.70
2019-03-28T02:29:27.770Z,7.70
2019-03-28T02:31:57.716Z,7.70
2019-03-28T02:34:27.779Z,7.80
2019-03-28T02:36:58.926Z,7.80
2019-03-28T02:39:29.069Z,7.80
2019-03-28T02:41:59.147Z,7.80
2019-03-28T02:44:29.358Z,7.80
2019-03-28T02:47:00.531Z,7.80
2019-03-28T02:49:31.603Z,7.70
2019-03-28T02:52:01.767Z,7.80
2019-03-28T02:54:31.967Z,7.80
2019-03-28T02:57:03.182Z,7.80
2019-03-28T02:59:33.370Z,7.80
2019-03-28T03:02:03.627Z,7.80
2019-03-28T03:04:34.935Z,7.70
2019-03-28T03:07:07.146Z,7.70
2019-03-28T03:09:37.308Z,7.70
2019-03-28T03:12:07.302Z,7.70
2019-03-28T03:14:37.601Z,7.70
2019-03-28T03:17:08.967Z,7.70
2019-03-28T03:19:39.124Z,7.70
2019-03-28T03:22:09.162Z,7.70
2019-03-28T03:24:39.247Z,7.70
2019-03-28T03:27:10.323Z,7.70
2019-03-28T03:29:40.469Z,7.60
2019-03-28T03:32:11.531Z,7.60
2019-03-28T03:34:41.683Z,7.50
2019-03-28T03:37:12.742Z,7.40
2019-03-28T03:39:42.835Z,7.30
2019-03-28T03:42:12.871Z,7.30
2019-03-28T03:44:43.021Z,7.20
2019-03-28T03:47:14.548Z,7.10
2019-03-28T03:49:45.694Z,7.00
2019-03-28T03:52:15.916Z,7.00
2019-03-28T03:54:46.037Z,7.00
2019-03-28T03:57:17.356Z,7.00
2019-03-28T03:59:47.537Z,7.00
2019-03-28T04:02:17.665Z,7.00
2019-03-28T04:04:48.007Z,7.00
2019-03-28T04:07:19.340Z,6.90
2019-03-28T04:09:49.550Z,7.00
2019-03-28T04:12:19.661Z,6.90
2019-03-28T04:14:49.991Z,6.80
2019-03-28T04:17:21.650Z,6.80
2019-03-28T04:19:51.956Z,6.80
2019-03-28T04:22:22.042Z,6.80
2019-03-28T04:24:52.236Z,6.80
2019-03-28T04:27:23.369Z,6.70
2019-03-28T04:29:53.686Z,6.70
2019-03-28T04:32:23.776Z,6.60
2019-03-28T04:34:53.986Z,6.60
2019-03-28T04:37:25.165Z,6.60
2019-03-28T04:39:55.344Z,6.60
2019-03-28T04:42:25.432Z,6.60
2019-03-28T04:44:55.679Z,6.60
2019-03-28T04:47:26.871Z,6.60
2019-03-28T04:49:58.042Z,6.60
2019-03-28T04:52:31.864Z,6.50
2019-03-28T04:55:01.013Z,6.50
2019-03-28T04:57:32.340Z,6.50
2019-03-28T05:00:02.556Z,6.50
2019-03-28T05:02:32.928Z,6.50
2019-03-28T05:05:03.117Z,6.40
2019-03-28T05:07:34.453Z,6.50
2019-03-28T05:10:07.290Z,6.50
2019-03-28T05:12:37.382Z,6.50
2019-03-28T05:15:11.103Z,6.40
2019-03-28T05:17:42.352Z,6.50
2019-03-28T05:20:13.427Z,6.60
2019-03-28T05:22:43.725Z,6.80
2019-03-28T05:25:14.006Z,6.90
2019-03-28T05:27:45.265Z,7.30
2019-03-28T05:30:15.660Z,7.50
2019-03-28T05:32:45.749Z,7.90
2019-03-28T05:35:15.965Z,8.30
2019-03-28T05:37:48.222Z,8.70
2019-03-28T05:40:18.515Z,9.20
2019-03-28T05:42:48.595Z,9.50
2019-03-28T05:45:18.830Z,9.70
2019-03-28T05:47:50.034Z,9.90
2019-03-28T05:50:21.151Z,10.20
2019-03-28T05:52:51.301Z,10.60
2019-03-28T05:55:21.954Z,10.90
2019-03-28T05:57:55.878Z,11.30
2019-03-28T06:00:26.543Z,11.70
2019-03-28T06:02:57.081Z,12.10
2019-03-28T06:05:27.746Z,12.40
2019-03-28T06:07:59.491Z,12.60
2019-03-28T06:10:30.123Z,13.00
2019-03-28T06:13:00.651Z,13.40
2019-03-28T06:15:31.361Z,13.60
2019-03-28T06:18:03.046Z,14.10
2019-03-28T06:20:44.147Z,14.60
2019-03-28T06:23:14.682Z,15.20
2019-03-28T06:25:45.436Z,15.80
2019-03-28T06:28:16.063Z,16.40
2019-03-28T06:30:46.714Z,17.20
2019-03-28T06:33:17.255Z,17.70
2019-03-28T06:35:48.327Z,18.10
2019-03-28T06:38:19.151Z,19.00
2019-03-28T06:40:49.885Z,19.60
2019-03-28T06:43:20.422Z,20.00
2019-03-28T06:45:51.253Z,20.70
2019-03-28T06:48:21.890Z,21.40
2019-03-28T06:50:53.478Z,21.90
2019-03-28T06:53:23.999Z,22.30
2019-03-28T06:55:54.644Z,22.60
2019-03-28T06:58:26.301Z,23.10
2019-03-28T07:00:56.966Z,23.80
2019-03-28T07:03:27.605Z,24.10
2019-03-28T07:05:58.238Z,24.50
2019-03-28T07:08:28.782Z,25.10
2019-03-28T07:10:59.530Z,25.60
2019-03-28T07:13:30.086Z,25.60
2019-03-28T07:16:00.589Z,26.10
2019-03-28T07:18:30.823Z,26.30
2019-03-28T07:21:01.161Z,26.30
2019-03-28T07:23:31.699Z,26.10
2019-03-28T07:26:04.577Z,25.90
2019-03-28T07:28:35.122Z,26.10
2019-03-28T07:31:05.889Z,26.10
2019-03-28T07:33:36.534Z,25.20
2019-03-28T07:36:07.258Z,25.50
2019-03-28T07:38:37.797Z,25.10
2019-03-28T07:41:09.434Z,25.20
2019-03-28T07:43:39.979Z,25.70
2019-03-28T07:46:11.818Z,24.90
2019-03-28T07:48:42.396Z,24.90
2019-03-28T07:51:14.131Z,24.00
2019-03-28T07:53:44.659Z,22.90
2019-03-28T07:56:15.607Z,23.20
2019-03-28T07:58:46.178Z,22.90
2019-03-28T08:01:18.264Z,23.30
2019-03-28T08:03:48.954Z,23.80
2019-03-28T08:06:20.587Z,23.80
2019-03-28T08:08:51.378Z,24.00
2019-03-28T08:11:22.404Z,24.00
2019-03-28T08:13:53.110Z,24.80
2019-03-28T08:16:25.329Z,24.10
2019-03-28T08:18:57.127Z,24.30
2019-03-28T08:21:27.901Z,24.40
2019-03-28T08:23:58.455Z,24.20
2019-03-28T08:26:30.508Z,23.70
2019-03-28T08:29:01.245Z,24.50
2019-03-28T08:31:31.693Z,24.50
2019-03-28T08:34:02.333Z,24.70
2019-03-28T08:36:34.347Z,25.60
2019-03-28T08:39:07.070Z,26.30
2019-03-28T08:41:38.214Z,26.60
2019-03-28T08:44:08.822Z,26.70
2019-03-28T08:46:40.722Z,26.70
2019-03-28T08:49:11.346Z,26.80
2019-03-28T08:51:42.708Z,27.60
2019-03-28T08:54:13.240Z,28.00
2019-03-28T08:56:45.091Z,28.90
2019-03-28T08:59:15.711Z,28.70
2019-03-28T09:01:46.260Z,28.60
2019-03-28T09:04:16.491Z,28.90
2019-03-28T09:06:48.223Z,28.90
2019-03-28T09:09:21.211Z,26.90
2019-03-28T09:11:51.245Z,26.30
2019-03-28T09:14:21.891Z,26.00
2019-03-28T09:16:52.666Z,25.50
2019-03-28T09:19:23.217Z,25.80
2019-03-28T09:21:53.951Z,25.90
2019-03-28T09:24:24.481Z,25.70
2019-03-28T09:26:56.251Z,25.90
2019-03-28T09:29:26.883Z,26.70
2019-03-28T09:31:57.729Z,25.90
2019-03-28T09:34:28.435Z,25.90
2019-03-28T09:37:00.231Z,25.70
2019-03-28T09:39:30.860Z,25.00
2019-03-28T09:42:01.595Z,24.20
2019-03-28T09:44:32.122Z,24.80
2019-03-28T09:47:04.043Z,23.30
2019-03-28T09:49:34.919Z,22.60
2019-03-28T09:52:06.944Z,21.30
2019-03-28T09:54:38.003Z,20.20
2019-03-28T09:57:09.863Z,19.80
2019-03-28T09:59:40.396Z,18.70
2019-03-28T10:02:11.112Z,17.20
2019-03-28T10:04:41.669Z,16.10
2019-03-28T10:07:13.404Z,15.70
2019-03-28T10:09:44.352Z,15.50
2019-03-28T10:12:15.232Z,15.60
2019-03-28T10:14:45.842Z,15.60
2019-03-28T10:17:17.699Z,15.30
2019-03-28T10:19:48.344Z,15.20
2019-03-28T10:22:22.160Z,15.20
2019-03-28T10:24:51.211Z,15.10
2019-03-28T10:27:21.910Z,15.30
2019-03-28T10:29:54.334Z,15.10
2019-03-28T10:32:24.990Z,15.20
2019-03-28T10:34:55.515Z,15.30
2019-03-28T10:37:26.170Z,15.30
2019-03-28T10:39:56.713Z,15.40
2019-03-28T10:42:27.350Z,15.20
2019-03-28T10:44:57.899Z,15.10
2019-03-28T10:47:28.840Z,15.10
2019-03-28T10:49:59.499Z,15.10
2019-03-28T10:52:31.119Z,15.10
2019-03-28T10:55:01.693Z,15.30
2019-03-28T10:57:32.562Z,15.20
2019-03-28T11:00:04.668Z,15.30
2019-03-28T11:02:37.327Z,15.20
2019-03-28T11:05:08.365Z,15.30
2019-03-28T11:07:39.100Z,15.40
2019-03-28T11:10:10.063Z,15.30
2019-03-28T11:12:40.889Z,15.40
2019-03-28T11:15:11.565Z,15.30
2019-03-28T11:17:43.510Z,15.20
2019-03-28T11:20:14.358Z,14.90
2019-03-28T11:22:45.106Z,14.80
2019-03-28T11:25:15.740Z,14.80
2019-03-28T11:27:46.478Z,14.80
2019-03-28T11:30:18.514Z,14.90
2019-03-28T11:32:49.440Z,15.10
2019-03-28T11:35:19.966Z,15.20
2019-03-28T11:37:50.757Z,15.20
2019-03-28T11:40:24.449Z,15.40
2019-03-28T11:42:53.935Z,15.50
2019-03-28T11:45:27.051Z,15.20
2019-03-28T11:47:58.231Z,15.10
2019-03-28T11:50:28.769Z,15.20
2019-03-28T11:53:00.517Z,15.00
2019-03-28T11:55:31.038Z,14.90
2019-03-28T11:58:02.859Z,14.80
2019-03-28T12:00:33.376Z,14.70
2019-03-28T12:03:04.032Z,14.70
2019-03-28T12:05:34.659Z,14.80
2019-03-28T12:08:06.443Z,14.80
2019-03-28T12:10:36.966Z,14.90
2019-03-28T12:13:07.692Z,15.00
2019-03-28T12:15:38.354Z,15.20
2019-03-28T12:18:09.158Z,15.20
2019-03-28T12:20:39.672Z,15.10
2019-03-28T12:23:10.298Z,15.10
2019-03-28T12:25:40.265Z,15.10
2019-03-28T12:28:12.090Z,15.00
2019-03-28T12:30:43.746Z,15.00
2019-03-28T12:33:14.773Z,15.00
2019-03-28T12:35:45.570Z,15.00
2019-03-28T12:38:16.426Z,15.00
2019-03-28T12:40:46.959Z,15.00
2019-03-28T12:43:18.742Z,14.90
2019-03-28T12:45:50.022Z,14.90
2019-03-28T12:48:21.253Z,15.00
2019-03-28T12:50:58.672Z,14.90
2019-03-28T12:53:25.699Z,14.90
2019-03-28T12:55:56.235Z,15.00
2019-03-28T12:58:26.985Z,15.00
2019-03-28T13:00:57.994Z,15.00
2019-03-28T13:03:34.796Z,15.00
2019-03-28T13:06:01.417Z,15.00
2019-03-28T13:08:32.110Z,15.20
2019-03-28T13:11:02.695Z,15.20
2019-03-28T13:13:33.449Z,15.20
2019-03-28T13:16:05.561Z,15.20
2019-03-28T13:18:36.555Z,15.10
2019-03-28T13:21:13.502Z,15.10
2019-03-28T13:23:39.342Z,15.10
2019-03-28T13:26:10.955Z,14.90
2019-03-28T13:28:41.648Z,15.00
2019-03-28T13:31:12.177Z,15.10
2019-03-28T13:33:42.914Z,15.00
2019-03-28T13:36:15.506Z,15.10
2019-03-28T13:38:47.342Z,15.10
2019-03-28T13:41:17.885Z,15.10
2019-03-28T13:43:48.609Z,15.20
2019-03-28T13:46:19.286Z,15.20
2019-03-28T13:48:50.102Z,15.20
2019-03-28T13:51:20.938Z,15.20
2019-03-28T13:53:52.195Z,15.10
2019-03-28T13:56:23.024Z,15.10
2019-03-28T13:58:53.639Z,15.10
2019-03-28T14:01:26.270Z,15.10
2019-03-28T14:03:56.444Z,15.10
2019-03-28T14:06:27.078Z,15.10
2019-03-28T14:08:57.723Z,15.10
2019-03-28T14:11:28.564Z,15.10
2019-03-28T14:13:59.368Z,15.10
2019-03-28T14:16:30.284Z,15.20
2019-03-28T14:19:01.040Z,15.10
2019-03-28T14:21:31.836Z,15.00
2019-03-28T14:24:02.632Z,15.10
2019-03-28T14:26:37.425Z,15.10
2019-03-28T14:29:07.133Z,15.10
2019-03-28T14:31:59.829Z,15.20
2019-03-28T14:34:29.535Z,15.30
2019-03-28T14:37:00.262Z,15.20
2019-03-28T14:39:31.064Z,15.10
2019-03-28T14:42:01.753Z,15.20
2019-03-28T14:44:33.550Z,15.20
2019-03-28T14:47:04.224Z,15.10
2019-03-28T14:49:35.262Z,15.20
2019-03-28T14:52:05.990Z,15.10
2019-03-28T14:54:36.692Z,15.10
2019-03-28T14:57:07.846Z,15.10
2019-03-28T14:59:40.271Z,15.10
2019-03-28T15:02:10.898Z,15.10
2019-03-28T15:04:41.583Z,15.10
2019-03-28T15:07:12.133Z,15.10
2019-03-28T15:09:42.779Z,15.10
2019-03-28T15:12:13.304Z,15.10
2019-03-28T15:14:43.990Z,15.10
2019-03-28T15:17:14.621Z,15.10
2019-03-28T15:19:45.402Z,15.10
2019-03-28T15:22:15.931Z,15.20
2019-03-28T15:24:46.712Z,15.10
2019-03-28T15:27:17.403Z,15.10
2019-03-28T15:29:48.035Z,15.10
2019-03-28T15:32:18.747Z,15.00
2019-03-28T15:34:49.482Z,15.10
2019-03-28T15:37:20.029Z,15.00
2019-03-28T15:39:50.915Z,15.00
2019-03-28T15:42:21.639Z,15.00
2019-03-28T15:44:52.479Z,15.00
2019-03-28T15:47:23.202Z,15.00
2019-03-28T15:49:53.996Z,15.00
2019-03-28T15:52:27.295Z,15.00
2019-03-28T15:54:56.885Z,15.00
2019-03-28T15:57:28.558Z,15.00
2019-03-28T15:59:59.191Z,14.90
2019-03-28T16:02:29.713Z,14.90
2019-03-28T16:05:00.467Z,14.90
2019-03-28T16:07:31.016Z,14.80
2019-03-28T16:10:01.738Z,14.80
2019-03-28T16:12:32.684Z,14.90
2019-03-28T16:15:03.741Z,14.90
2019-03-28T16:17:35.967Z,14.90
2019-03-28T16:20:08.138Z,14.80
2019-03-28T16:22:38.866Z,14.90
2019-03-28T16:25:09.907Z,14.80
2019-03-28T16:27:40.444Z,14.80
2019-03-28T16:30:16.160Z,14.80
2019-03-28T16:32:46.728Z,14.70
2019-03-28T16:35:20.914Z,14.70
2019-03-28T16:37:51.078Z,14.70
2019-03-28T16:40:22.782Z,14.70
2019-03-28T16:43:12.790Z,14.70
2019-03-28T16:45:43.513Z,14.60
2019-03-28T16:48:14.162Z,14.50
2019-03-28T16:50:46.873Z,14.50
2019-03-28T16:53:17.543Z,14.50
2019-03-28T16:55:49.011Z,14.50
2019-03-28T16:58:20.095Z,14.50
2019-03-28T17:00:52.112Z,14.40
2019-03-28T17:03:22.872Z,14.30
2019-03-28T17:05:57.668Z,14.30
2019-03-28T17:08:37.680Z,14.20
2019-03-28T17:11:08.455Z,14.20
2019-03-28T17:13:39.237Z,14.10
2019-03-28T17:16:12.370Z,14.10
2019-03-28T17:18:43.878Z,14.10
2019-03-28T17:21:19.521Z,14.10
2019-03-28T17:23:50.713Z,14.00
2019-03-28T17:26:21.537Z,13.90
2019-03-28T17:28:53.174Z,13.80
2019-03-28T17:31:23.933Z,13.80
2019-03-28T17:33:54.536Z,13.80
2019-03-28T17:36:26.841Z,13.70
2019-03-28T17:38:56.867Z,13.70
2019-03-28T17:41:27.566Z,13.70
2019-03-28T17:43:58.205Z,13.60
2019-03-28T17:46:30.178Z,13.60
2019-03-28T17:49:00.821Z,13.50
2019-03-28T17:51:31.575Z,13.50
2019-03-28T17:54:02.224Z,13.40
2019-03-28T17:56:35.994Z,13.40
2019-03-28T17:59:06.538Z,13.40
2019-03-28T18:01:37.375Z,13.30
2019-03-28T18:04:08.035Z,13.20
2019-03-28T18:06:38.952Z,13.10
2019-03-28T18:09:09.559Z,13.10
2019-03-28T18:11:40.415Z,13.00
2019-03-28T18:14:11.029Z,12.90
2019-03-28T18:16:45.245Z,12.90
2019-03-28T18:19:15.368Z,12.80
2019-03-28T18:21:46.136Z,12.80
2019-03-28T18:24:16.660Z,12.70
2019-03-28T18:26:47.633Z,12.70
2019-03-28T18:29:19.334Z,12.60
2019-03-28T18:31:52.379Z,12.60
2019-03-28T18:34:23.427Z,12.60
2019-03-28T18:36:54.140Z,12.60
2019-03-28T18:39:24.673Z,12.50
2019-03-28T18:41:56.632Z,12.50
2019-03-28T18:44:27.503Z,12.40
2019-03-28T18:46:58.346Z,12.50
2019-03-28T18:49:31.074Z,12.40
2019-03-28T18:52:01.532Z,12.40
2019-03-28T18:54:32.140Z,12.40
2019-03-28T18:57:03.852Z,12.40
2019-03-28T18:59:34.514Z,12.40
2019-03-28T19:02:05.261Z,12.40
2019-03-28T19:04:35.822Z,12.30
2019-03-28T19:07:07.744Z,12.30
2019-03-28T19:09:38.290Z,12.30
2019-03-28T19:12:09.032Z,12.30
2019-03-28T19:14:39.082Z,12.20
2019-03-28T19:17:10.824Z,12.20
2019-03-28T19:19:41.382Z,12.20
2019-03-28T19:22:12.213Z,12.20
2019-03-28T19:24:42.767Z,12.10
2019-03-28T19:27:13.787Z,12.10
2019-03-28T19:29:43.762Z,12.10
2019-03-28T19:32:14.514Z,12.10
2019-03-28T19:34:45.043Z,12.10
2019-03-28T19:37:16.212Z,12.10
2019-03-28T19:39:46.922Z,12.00
2019-03-28T19:42:17.989Z,12.00
2019-03-28T19:44:49.470Z,12.00
2019-03-28T19:47:20.334Z,11.90
2019-03-28T19:50:11.735Z,11.90
2019-03-28T19:52:42.894Z,11.90
2019-03-28T19:55:16.597Z,11.90
2019-03-28T19:57:48.765Z,11.90
2019-03-28T20:00:21.238Z,11.90
2019-03-28T20:02:51.446Z,11.90
2019-03-28T20:05:21.406Z,11.90
2019-03-28T20:07:52.045Z,11.90
2019-03-28T20:10:22.700Z,11.80
2019-03-28T20:12:53.467Z,11.80
2019-03-28T20:15:24.086Z,11.80
2019-03-28T20:17:54.766Z,11.70
2019-03-28T20:20:25.325Z,11.70
2019-03-28T20:22:56.157Z,11.60
2019-03-28T20:25:26.707Z,11.60
2019-03-28T20:27:57.434Z,11.60
2019-03-28T20:30:27.949Z,11.50
2019-03-28T20:32:58.919Z,11.50
2019-03-28T20:35:30.091Z,11.40
2019-03-28T20:38:00.844Z,11.40
2019-03-28T20:40:31.399Z,11.40
2019-03-28T20:43:02.484Z,11.40
2019-03-28T20:45:32.523Z,11.30
2019-03-28T20:48:03.278Z,11.30
2019-03-28T20:50:36.738Z,11.30
2019-03-28T20:53:07.562Z,11.20
2019-03-28T20:55:40.784Z,11.20
2019-03-28T20:58:12.442Z,11.20
2019-03-28T21:00:45.268Z,11.20
2019-03-28T21:03:16.332Z,11.10
2019-03-28T21:05:47.748Z,11.10
2019-03-28T21:08:17.935Z,11.10
2019-03-28T21:10:48.477Z,11.10
2019-03-28T21:13:19.143Z,11.00
2019-03-28T21:15:49.991Z,11.00
2019-03-28T21:18:20.062Z,11.00
2019-03-28T21:20:50.704Z,10.90
2019-03-28T21:23:21.398Z,10.90
2019-03-28T21:25:51.912Z,10.80
2019-03-28T21:28:46.425Z,10.80
2019-03-28T21:31:06.779Z,10.70
2019-03-28T21:33:37.390Z,10.60
2019-03-28T21:36:08.012Z,10.50
2019-03-28T21:38:38.089Z,10.50
2019-03-28T21:41:08.200Z,10.40
2019-03-28T21:43:38.326Z,10.30
2019-03-28T21:46:09.447Z,10.30
2019-03-28T21:48:39.602Z,10.30
2019-03-28T21:51:11.609Z,10.20
2019-03-28T21:53:42.003Z,10.20
2019-03-28T21:56:14.375Z,10.20
2019-03-28T21:58:46.490Z,10.10
2019-03-28T22:01:17.201Z,10.00
2019-03-28T22:03:47.872Z,10.00
2019-03-28T22:06:18.731Z,10.00
2019-03-28T22:08:50.655Z,9.90
2019-03-28T22:11:21.622Z,9.90
2019-03-28T22:13:52.814Z,9.90
2019-03-28T22:16:24.031Z,9.90
2019-03-28T22:18:54.497Z,9.90
2019-03-28T22:21:27.334Z,9.90
2019-03-28T22:23:57.354Z,9.80
2019-03-28T22:26:27.362Z,9.80
2019-03-28T22:28:57.707Z,9.70
2019-03-28T22:31:28.226Z,9.70
2019-03-28T22:33:58.870Z,9.70
2019-03-28T22:36:29.486Z,9.70
2019-03-28T22:38:59.842Z,9.60
2019-03-28T22:41:39.701Z,9.60
2019-03-28T22:44:10.034Z,9.50
2019-03-28T22:46:40.099Z,9.50
2019-03-28T22:49:10.744Z,9.50
2019-03-28T22:51:41.444Z,9.50
2019-03-28T22:54:14.368Z,9.40
2019-03-28T22:56:45.692Z,9.40
2019-03-28T22:59:17.318Z,9.40
2019-03-28T23:01:48.349Z,9.40
2019-03-28T23:04:18.736Z,9.40
2019-03-28T23:06:49.150Z,9.40
2019-03-28T23:09:19.379Z,9.40
2019-03-28T23:11:49.536Z,9.50
2019-03-28T23:14:19.693Z,9.40
2019-03-28T23:16:50.882Z,9.40
2019-03-28T23:19:21.058Z,9.40
2019-03-28T23:21:51.581Z,9.30
2019-03-28T23:24:21.798Z,9.30
2019-03-28T23:26:53.393Z,9.30
2019-03-28T23:29:24.030Z,9.20
2019-03-28T23:31:53.973Z,9.20
2019-03-28T23:34:24.040Z,9.10
2019-03-28T23:36:55.073Z,9.10
2019-03-28T23:39:25.807Z,9.10
2019-03-28T23:41:55.843Z,9.10
2019-03-28T23:44:25.902Z,9.10
2019-03-28T23:46:57.949Z,9.00
2019-03-28T23:49:28.034Z,9.00
2019-03-28T23:51:58.059Z,8.90
2019-03-28T23:54:28.191Z,8.90
2019-03-28T23:56:59.373Z,8.80
2019-03-28T23:59:30.458Z,8.80
